Time;durP1;ratioP1;P1;durP2;ratioP2;P2;SDS_P1;SDS_P2;PMS_P1;PMS_P2;Temp;Humidity;BMP_temperature;BMP_pressure;BME280_temperature;BME280_humidity;BME280_pressure;Samples;Min_cycle;Max_cycle;Signal;HPM_P1;HPM_P2
2021/09/20 00:01:43;;;;;;;;;0.25;0.00;;;;;18.40;63.53;101464.69;5015827;28;45423;-78
2021/09/20 00:04:08;;;;;;;;;0.00;0.00;;;;;18.41;63.39;101469.06;5016219;28;45288;-79
2021/09/20 00:06:34;;;;;;;;;0.00;0.00;;;;;18.40;62.54;101463.81;5015804;28;45673;-79
2021/09/20 00:08:59;;;;;;;;;0.50;0.00;;;;;18.39;62.61;101472.53;5015023;28;46293;-78
2021/09/20 00:11:25;;;;;;;;;0.25;0.25;;;;;18.29;62.63;101460.94;5017402;28;45311;-79
2021/09/20 00:13:51;;;;;;;;;0.00;0.00;;;;;18.32;63.08;101475.81;5018656;28;45379;-78
2021/09/20 00:16:17;;;;;;;;;2.75;0.00;;;;;18.32;63.05;101473.22;5019186;28;45331;-80
2021/09/20 00:18:42;;;;;;;;;0.25;0.00;;;;;18.28;63.41;101472.25;5017972;28;45909;-78
2021/09/20 00:21:08;;;;;;;;;0.00;0.00;;;;;18.21;63.68;101460.72;5018936;28;45270;-78
2021/09/20 00:23:34;;;;;;;;;1.00;1.00;;;;;18.21;63.50;101467.72;5019003;28;45261;-78
2021/09/20 00:26:00;;;;;;;;;0.00;0.00;;;;;18.25;63.19;101477.41;5018783;28;45346;-78
2021/09/20 00:28:26;;;;;;;;;2.00;0.00;;;;;18.15;63.21;101460.59;5017593;28;45473;-78
2021/09/20 00:30:52;;;;;;;;;1.25;0.25;;;;;18.17;63.37;101471.13;4998486;28;45739;-79
2021/09/20 00:33:18;;;;;;;;;0.00;0.00;;;;;18.07;64.13;101455.16;4998861;28;45505;-78
2021/09/20 00:35:44;;;;;;;;;0.50;0.50;;;;;18.10;64.04;101470.06;4998899;28;45363;-78
2021/09/20 00:38:10;;;;;;;;;0.75;0.75;;;;;18.02;64.42;101464.66;4998901;28;45824;-78
2021/09/20 00:40:36;;;;;;;;;1.00;1.00;;;;;18.04;64.55;101462.94;4997503;28;45471;-78
2021/09/20 00:43:03;;;;;;;;;1.00;1.00;;;;;18.00;64.70;101463.75;4998548;28;45241;-79
2021/09/20 00:45:29;;;;;;;;;1.00;1.00;;;;;17.90;64.96;101441.63;4998962;28;45327;-78
2021/09/20 00:47:55;;;;;;;;;1.75;0.00;;;;;18.00;65.08;101457.59;4998326;28;46449;-79
2021/09/20 00:50:21;;;;;;;;;0.00;0.00;;;;;18.01;64.86;101455.03;4998505;28;46006;-79
2021/09/20 00:52:47;;;;;;;;;0.00;0.00;;;;;17.94;64.33;101458.28;4998793;28;45355;-79
2021/09/20 00:55:13;;;;;;;;;0.00;0.00;;;;;17.92;64.83;101452.16;4999619;28;45483;-80
2021/09/20 00:57:43;;;;;;;;;2.00;0.75;;;;;17.91;65.53;101451.25;5000184;28;45402;-79
2021/09/20 01:00:13;;;;;;;;;0.50;0.25;;;;;17.80;65.36;101426.53;4999899;28;45373;-79
2021/09/20 01:02:39;;;;;;;;;1.50;0.00;;;;;17.86;65.83;101445.03;4999760;28;45418;-79
2021/09/20 01:05:07;;;;;;;;;1.50;0.00;;;;;17.91;65.39;101442.53;4998552;28;45162;-78
2021/09/20 01:07:33;;;;;;;;;0.00;0.00;;;;;17.83;65.40;101433.56;4998465;28;47125;-79
2021/09/20 01:09:59;;;;;;;;;0.75;0.75;;;;;17.84;65.83;101446.72;4998569;28;45174;-78
2021/09/20 01:12:25;;;;;;;;;0.00;0.00;;;;;17.83;66.48;101451.91;5013434;28;45290;-79
2021/09/20 01:14:51;;;;;;;;;1.00;1.00;;;;;17.77;66.80;101452.63;4998263;28;45493;-78
2021/09/20 01:17:16;;;;;;;;;0.00;0.00;;;;;17.76;66.78;101441.28;5006691;28;46094;-78
2021/09/20 01:19:42;;;;;;;;;2.75;1.00;;;;;17.61;66.70;101419.94;5015779;28;45521;-79
2021/09/20 01:22:16;;;;;;;;;1.50;0.75;;;;;17.77;67.32;101442.16;4998205;28;45363;-78
2021/09/20 01:24:43;;;;;;;;;2.00;2.00;;;;;17.77;67.36;101447.41;4998118;28;45422;-79
2021/09/20 01:27:10;;;;;;;;;2.25;0.00;;;;;17.69;67.36;101436.75;5002097;28;45547;-78
2021/09/20 01:29:36;;;;;;;;;1.00;1.00;;;;;17.66;67.42;101430.53;5018200;28;45606;-78
2021/09/20 01:32:04;;;;;;;;;1.00;0.00;;;;;17.59;67.61;101432.13;5017126;28;45274;-78
2021/09/20 01:34:30;;;;;;;;;1.00;1.00;;;;;17.57;67.76;101428.56;5017792;28;45450;-78
2021/09/20 01:36:56;;;;;;;;;0.50;0.50;;;;;17.57;67.69;101437.31;5017287;28;46766;-77
2021/09/20 01:39:25;;;;;;;;;0.00;0.00;;;;;17.57;67.82;101441.66;5016919;28;45481;-77
2021/09/20 01:41:52;;;;;;;;;0.00;0.00;;;;;17.55;68.03;101441.59;5016692;28;45349;-77
2021/09/20 01:44:18;;;;;;;;;2.50;1.50;;;;;17.48;67.89;101434.44;5018940;28;45449;-77
2021/09/20 01:46:49;;;;;;;;;2.00;2.00;;;;;17.53;67.75;101438.09;5022200;28;46181;-78
2021/09/20 01:49:17;;;;;;;;;1.75;1.00;;;;;17.49;68.11;101428.38;5020943;28;45277;-79
2021/09/20 01:51:43;;;;;;;;;1.00;1.00;;;;;17.41;68.23;101409.84;5020396;28;45145;-78
2021/09/20 01:54:11;;;;;;;;;0.00;0.00;;;;;17.52;68.26;101430.16;5019458;28;45481;-78
2021/09/20 01:56:37;;;;;;;;;1.50;1.00;;;;;17.49;68.18;101429.25;5032832;28;47025;-78
2021/09/20 01:59:04;;;;;;;;;1.00;1.00;;;;;17.51;68.24;101431.00;5016912;28;45742;-78
2021/09/20 02:01:29;;;;;;;;;2.00;1.00;;;;;17.50;68.90;101427.53;5017198;28;45229;-80
2021/09/20 02:03:55;;;;;;;;;2.50;1.00;;;;;17.48;68.78;101435.34;5017362;28;45660;-79
2021/09/20 02:06:22;;;;;;;;;1.00;1.00;;;;;17.45;68.90;101424.78;5014970;28;46308;-80
2021/09/20 02:08:50;;;;;;;;;3.00;1.00;;;;;17.41;69.11;101422.94;5015733;28;45647;-80
2021/09/20 02:11:17;;;;;;;;;4.00;2.00;;;;;17.38;69.41;101419.34;5017164;28;45373;-81
2021/09/20 02:13:43;;;;;;;;;2.50;2.50;;;;;17.25;69.08;101403.31;5016530;28;45414;-79
2021/09/20 02:16:09;;;;;;;;;4.00;4.00;;;;;17.38;69.14;101416.72;5017168;28;45512;-79
2021/09/20 02:18:36;;;;;;;;;1.75;1.75;;;;;17.40;69.17;101415.03;5017091;28;45649;-79
2021/09/20 02:21:03;;;;;;;;;3.50;2.25;;;;;17.38;69.46;101408.88;5016842;28;45256;-79
2021/09/20 02:23:29;;;;;;;;;2.75;2.75;;;;;17.47;68.92;101419.59;5017334;28;45431;-79
2021/09/20 02:25:55;;;;;;;;;1.00;1.00;;;;;17.44;69.40;101411.66;5016406;28;45386;-79
2021/09/20 02:28:21;;;;;;;;;2.00;2.00;;;;;17.45;69.29;101419.56;5002356;28;45327;-79
2021/09/20 02:30:47;;;;;;;;;1.25;1.25;;;;;17.41;69.42;101401.97;4996828;28;45386;-80
2021/09/20 02:33:13;;;;;;;;;3.50;1.00;;;;;17.44;69.42;101411.66;4996780;28;45501;-79
2021/09/20 02:35:38;;;;;;;;;2.25;2.25;;;;;17.35;69.26;101391.38;4996847;28;45702;-79
2021/09/20 02:38:04;;;;;;;;;2.00;2.00;;;;;17.49;69.33;101402.19;4996484;28;45431;-79
2021/09/20 02:40:29;;;;;;;;;2.00;2.00;;;;;17.52;69.13;101412.75;4996970;28;45331;-79
2021/09/20 02:42:55;;;;;;;;;1.00;1.00;;;;;17.52;69.18;101404.91;4996700;28;45575;-79
2021/09/20 02:45:21;;;;;;;;;1.00;1.00;;;;;17.49;69.35;101410.91;4999862;28;45388;-79
2021/09/20 02:47:47;;;;;;;;;1.75;1.00;;;;;17.49;69.04;101408.28;5001718;28;45180;-79
2021/09/20 02:50:13;;;;;;;;;1.50;1.50;;;;;17.48;68.94;101408.25;4999558;28;45205;-79
2021/09/20 02:52:39;;;;;;;;;2.00;2.00;;;;;17.47;69.30;101402.16;4997264;28;45474;-79
2021/09/20 02:55:07;;;;;;;;;1.25;1.00;;;;;17.43;69.49;101402.91;4996227;28;46259;-79
2021/09/20 02:57:34;;;;;;;;;2.00;2.00;;;;;17.43;69.06;101402.03;4996411;28;45704;-78
2021/09/20 02:59:59;;;;;;;;;3.00;2.75;;;;;17.47;69.23;101409.09;5000843;28;45475;-78
2021/09/20 03:02:25;;;;;;;;;1.00;1.00;;;;;17.46;69.18;101403.00;5016485;28;45381;-79
2021/09/20 03:04:51;;;;;;;;;3.25;3.25;;;;;17.50;69.09;101409.19;5016069;28;45344;-78
2021/09/20 03:07:16;;;;;;;;;1.25;1.00;;;;;17.42;69.10;101392.41;5005014;28;45450;-79
2021/09/20 03:09:42;;;;;;;;;3.00;1.75;;;;;17.45;68.95;101400.31;4996262;28;45185;-79
2021/09/20 03:12:08;;;;;;;;;4.00;1.00;;;;;17.52;69.11;101411.84;4997068;28;45293;-80
2021/09/20 03:14:34;;;;;;;;;2.00;1.75;;;;;17.47;69.00;101403.88;4996294;28;45237;-79
2021/09/20 03:17:00;;;;;;;;;2.50;2.00;;;;;17.53;69.22;101411.91;4996015;28;45414;-79
2021/09/20 03:19:25;;;;;;;;;2.50;2.00;;;;;17.48;69.26;101398.69;4996498;28;45547;-79
2021/09/20 03:21:51;;;;;;;;;1.00;1.00;;;;;17.53;69.48;101409.28;5010879;28;45427;-78
2021/09/20 03:24:16;;;;;;;;;1.50;1.50;;;;;17.43;69.38;101396.81;5016059;28;46095;-79
2021/09/20 03:26:42;;;;;;;;;1.25;1.25;;;;;17.49;69.31;101402.19;5015218;28;45378;-80
2021/09/20 03:29:08;;;;;;;;;3.00;2.00;;;;;17.54;69.47;101405.81;5015085;28;45402;-79
2021/09/20 03:31:34;;;;;;;;;2.00;2.00;;;;;17.58;69.72;101418.13;5014852;28;45273;-79
2021/09/20 03:34:00;;;;;;;;;3.00;3.00;;;;;17.57;69.37;101412.88;5015528;28;45949;-80
2021/09/20 03:36:25;;;;;;;;;3.00;3.00;;;;;17.58;69.24;101412.91;5015893;28;45389;-79
2021/09/20 03:38:51;;;;;;;;;2.75;2.75;;;;;17.63;69.06;101423.47;5015763;28;45182;-79
2021/09/20 03:41:17;;;;;;;;;2.00;1.75;;;;;17.60;69.43;101416.44;5019413;28;45238;-79
2021/09/20 03:43:43;;;;;;;;;3.25;2.00;;;;;17.61;69.26;101419.94;5020098;28;45289;-79
2021/09/20 03:46:09;;;;;;;;;2.00;2.00;;;;;17.60;69.11;101413.81;5017624;28;45757;-79
2021/09/20 03:48:35;;;;;;;;;4.75;3.50;;;;;17.61;69.29;101422.56;4999881;28;45332;-80
2021/09/20 03:51:01;;;;;;;;;2.75;2.75;;;;;17.63;69.46;101415.63;4999577;28;45509;-79
2021/09/20 03:53:27;;;;;;;;;1.00;1.00;;;;;17.61;69.18;101414.69;4999252;28;45391;-82
2021/09/20 03:55:53;;;;;;;;;3.50;3.00;;;;;17.60;69.44;101415.56;4999284;28;45413;-83
2021/09/20 03:58:18;;;;;;;;;3.50;2.00;;;;;17.54;69.68;101411.06;4998197;28;45451;-81
2021/09/20 04:00:44;;;;;;;;;3.25;3.00;;;;;17.49;69.92;101408.28;4999491;28;45224;-80
2021/09/20 04:03:10;;;;;;;;;6.00;4.25;;;;;17.47;70.19;101403.88;4999380;28;45315;-79
2021/09/20 04:05:36;;;;;;;;;3.50;2.50;;;;;17.46;69.61;101408.25;4999467;28;45277;-79
2021/09/20 04:08:02;;;;;;;;;4.00;4.00;;;;;17.49;70.26;101416.16;4999929;28;45293;-79
2021/09/20 04:10:28;;;;;;;;;4.50;3.00;;;;;17.49;70.03;101423.13;5000543;28;45360;-79
2021/09/20 04:12:54;;;;;;;;;4.75;3.25;;;;;17.47;69.92;101422.19;5000230;28;45277;-79
2021/09/20 04:15:20;;;;;;;;;3.00;3.00;;;;;17.39;70.24;101408.03;5000291;28;45260;-79
2021/09/20 04:17:45;;;;;;;;;3.75;3.75;;;;;17.43;70.27;101417.75;4999520;28;45352;-79
2021/09/20 04:20:13;;;;;;;;;2.50;2.00;;;;;17.42;70.24;101421.22;5002479;28;45478;-79
2021/09/20 04:22:39;;;;;;;;;3.50;3.50;;;;;17.35;70.30;101407.06;5019010;28;45442;-79
2021/09/20 04:25:06;;;;;;;;;3.50;3.00;;;;;17.47;70.14;101430.06;5019165;28;45721;-80
2021/09/20 04:27:32;;;;;;;;;4.00;3.00;;;;;17.41;69.90;101424.66;5012546;28;45308;-80
2021/09/20 04:29:57;;;;;;;;;3.00;3.00;;;;;17.49;70.04;101428.38;4999092;28;45150;-79
2021/09/20 04:32:24;;;;;;;;;2.00;2.00;;;;;17.50;70.00;101422.28;4998859;28;46351;-79
2021/09/20 04:34:50;;;;;;;;;2.25;1.50;;;;;17.41;69.88;101419.44;4998820;28;45402;-80
2021/09/20 04:37:17;;;;;;;;;4.00;3.00;;;;;17.48;69.66;101430.13;5013341;28;45492;-79
2021/09/20 04:39:43;;;;;;;;;2.00;2.00;;;;;17.48;69.59;101426.59;5019325;28;45698;-79
2021/09/20 04:42:09;;;;;;;;;4.00;4.00;;;;;17.48;69.66;101427.50;5001233;28;46054;-79
2021/09/20 04:44:35;;;;;;;;;2.50;2.50;;;;;17.44;69.86;101416.91;5000535;28;45261;-80
2021/09/20 04:47:00;;;;;;;;;3.00;3.00;;;;;17.50;69.65;101427.53;4999199;28;45344;-80
2021/09/20 04:49:26;;;;;;;;;3.00;3.00;;;;;17.51;69.86;101429.31;4998879;28;45453;-80
2021/09/20 04:51:52;;;;;;;;;1.25;1.25;;;;;17.42;69.84;101410.75;4998280;28;45769;-80
2021/09/20 04:54:18;;;;;;;;;4.50;3.00;;;;;17.45;69.51;101419.56;4998689;28;45242;-79
2021/09/20 04:56:43;;;;;;;;;4.00;2.00;;;;;17.46;69.80;101426.56;4998030;28;45178;-79
2021/09/20 04:59:09;;;;;;;;;3.25;3.00;;;;;17.49;69.79;101431.84;4999236;28;45568;-79
2021/09/20 05:01:34;;;;;;;;;2.00;2.00;;;;;17.47;69.86;101430.06;4998760;28;46142;-79
2021/09/20 05:04:00;;;;;;;;;2.50;2.50;;;;;17.49;69.60;101431.84;4998484;28;45348;-79
2021/09/20 05:06:26;;;;;;;;;2.75;2.75;;;;;17.51;70.08;101434.53;4998336;28;45398;-80
2021/09/20 05:08:52;;;;;;;;;5.00;4.00;;;;;17.43;69.59;101420.38;4998128;28;45359;-80
2021/09/20 05:11:17;;;;;;;;;5.25;2.50;;;;;17.49;69.63;101431.00;5008056;28;45507;-79
2021/09/20 05:13:43;;;;;;;;;4.00;2.50;;;;;17.46;70.20;101428.28;5017860;28;45323;-79
2021/09/20 05:16:08;;;;;;;;;4.50;4.00;;;;;17.52;69.78;101440.66;5018203;28;45402;-81
2021/09/20 05:18:34;;;;;;;;;4.00;3.00;;;;;17.46;70.08;101438.75;5018184;28;45343;-81
2021/09/20 05:21:00;;;;;;;;;4.00;4.00;;;;;17.48;69.73;101432.72;5006005;28;45336;-82
2021/09/20 05:23:25;;;;;;;;;3.25;3.25;;;;;17.56;70.44;101448.63;4997994;28;45249;-79
2021/09/20 05:25:51;;;;;;;;;5.25;4.25;;;;;17.56;70.16;101451.22;5014348;28;45327;-80
2021/09/20 05:28:17;;;;;;;;;5.75;4.00;;;;;17.50;69.99;101435.38;5017484;28;45525;-79
2021/09/20 05:30:42;;;;;;;;;4.50;4.50;;;;;17.60;70.28;101455.72;5020672;28;45257;-79
2021/09/20 05:33:08;;;;;;;;;4.75;4.00;;;;;17.54;70.37;101442.47;5020331;28;45611;-79
2021/09/20 05:35:34;;;;;;;;;4.25;4.25;;;;;17.58;70.68;101446.94;5016276;28;45349;-79
2021/09/20 05:38:00;;;;;;;;;5.50;5.00;;;;;17.59;70.19;101450.47;5022554;28;45769;-81
2021/09/20 05:40:25;;;;;;;;;9.50;5.25;;;;;17.58;70.43;101446.94;5020520;28;45471;-83
2021/09/20 05:42:56;;;;;;;;;3.75;3.75;;;;;17.62;70.31;101451.41;5016364;28;45389;-82
2021/09/20 05:45:23;;;;;;;;;8.00;5.75;;;;;17.60;70.29;101442.63;5024127;28;45280;-81
2021/09/20 05:47:50;;;;;;;;;5.25;4.00;;;;;17.63;70.83;101444.44;5017646;28;45250;-81
2021/09/20 05:50:16;;;;;;;;;5.75;5.00;;;;;17.62;70.61;101446.19;5015997;28;45503;-82
2021/09/20 05:52:42;;;;;;;;;5.00;5.00;;;;;17.71;70.51;101455.97;5016334;28;45329;-80
2021/09/20 05:55:11;;;;;;;;;7.00;7.00;;;;;17.74;70.11;101463.06;5017693;28;45434;-79
2021/09/20 05:57:37;;;;;;;;;8.75;8.25;;;;;17.66;70.14;101447.13;5017762;28;45430;-79
2021/09/20 06:00:04;;;;;;;;;9.00;8.00;;;;;17.76;70.25;101463.97;5016663;28;45573;-81
2021/09/20 06:02:29;;;;;;;;;14.50;8.00;;;;;17.75;70.46;101465.69;5016922;28;45617;-81
2021/09/20 06:04:55;;;;;;;;;11.25;7.00;;;;;17.74;70.56;101463.06;5021173;28;45387;-80
2021/09/20 06:07:21;;;;;;;;;10.00;6.50;;;;;17.74;70.41;101468.28;5016095;28;45494;-76
2021/09/20 06:09:47;;;;;;;;;11.25;7.00;;;;;17.73;70.47;101470.00;4996070;28;45557;-75
2021/09/20 06:12:13;;;;;;;;;11.25;7.75;;;;;17.72;70.87;101468.22;5009733;28;45719;-79
2021/09/20 06:14:38;;;;;;;;;12.00;8.00;;;;;17.76;70.58;101467.47;5015567;28;45498;-78
2021/09/20 06:17:05;;;;;;;;;8.00;7.00;;;;;17.71;70.46;101455.97;5014343;28;45525;-80
2021/09/20 06:19:31;;;;;;;;;8.50;7.25;;;;;17.75;70.52;101460.47;5015241;28;45509;-78
2021/09/20 06:21:56;;;;;;;;;12.00;8.50;;;;;17.82;70.87;101479.84;5020121;28;45354;-83
2021/09/20 06:24:22;;;;;;;;;11.50;10.25;;;;;17.84;70.84;101477.25;5036402;28;45460;-80
2021/09/20 06:26:48;;;;;;;;;10.25;8.50;;;;;17.82;70.79;101478.97;5021763;28;45212;-83
2021/09/20 06:29:14;;;;;;;;;11.75;9.75;;;;;17.87;70.94;101472.09;5018051;28;46092;-80
2021/09/20 06:31:40;;;;;;;;;10.50;8.50;;;;;17.85;70.49;101473.78;5016922;28;45750;-81
2021/09/20 06:34:06;;;;;;;;;11.00;9.75;;;;;17.87;70.74;101480.84;5016909;28;45815;-80
2021/09/20 06:36:32;;;;;;;;;11.75;11.25;;;;;17.94;70.95;101481.88;5017349;28;45489;-82
2021/09/20 06:38:57;;;;;;;;;13.00;11.75;;;;;17.93;70.95;101483.63;5015752;28;45439;-77
2021/09/20 06:41:24;;;;;;;;;11.25;10.00;;;;;17.95;70.47;101487.19;5016066;28;45943;-80
2021/09/20 06:43:50;;;;;;;;;10.50;10.00;;;;;18.03;70.97;101492.63;5015467;28;45302;-79
2021/09/20 06:46:15;;;;;;;;;11.25;10.00;;;;;18.06;71.03;101497.06;5016967;28;45571;-79
2021/09/20 06:48:42;;;;;;;;;11.75;11.50;;;;;18.04;71.18;101490.91;5014691;28;46304;-78
2021/09/20 06:51:08;;;;;;;;;16.75;13.00;;;;;18.07;70.46;101494.47;5004690;28;45823;-78
2021/09/20 06:53:35;;;;;;;;;13.50;11.25;;;;;18.08;70.66;101498.00;5005791;28;45563;-78
2021/09/20 06:56:01;;;;;;;;;11.25;10.00;;;;;18.14;70.67;101505.13;5010752;28;45878;-79
2021/09/20 06:58:26;;;;;;;;;12.50;10.25;;;;;18.14;70.75;101508.63;5013942;28;45545;-77
2021/09/20 07:00:52;;;;;;;;;12.50;10.25;;;;;18.10;70.45;101502.44;4998152;28;45501;-78
2021/09/20 07:03:18;;;;;;;;;19.00;14.25;;;;;18.12;70.35;101512.94;5011563;28;46439;-82
2021/09/20 07:05:44;;;;;;;;;15.50;11.75;;;;;18.03;70.87;101497.84;5014803;28;45391;-81
2021/09/20 07:08:09;;;;;;;;;15.75;12.25;;;;;18.13;70.47;101517.31;5019478;28;47691;-76
2021/09/20 07:10:36;;;;;;;;;13.25;12.50;;;;;18.13;70.19;101516.47;5015867;28;45462;-76
2021/09/20 07:13:02;;;;;;;;;14.00;12.25;;;;;18.06;70.45;101497.94;5016383;28;45321;-83
2021/09/20 07:15:28;;;;;;;;;9.00;8.75;;;;;18.16;70.98;101520.03;5011917;28;45558;-77
2021/09/20 07:17:53;;;;;;;;;13.00;11.50;;;;;18.12;71.15;101510.31;5015862;28;45345;-77
2021/09/20 07:20:19;;;;;;;;;14.50;8.75;;;;;18.19;70.33;101514.88;5014184;28;45430;-77
2021/09/20 07:22:45;;;;;;;;;12.75;11.75;;;;;18.25;70.66;101519.34;5013440;28;45846;-76
2021/09/20 07:25:13;;;;;;;;;14.75;12.50;;;;;18.32;70.16;101523.91;5014144;28;45563;-77
2021/09/20 07:27:39;;;;;;;;;16.75;11.00;;;;;18.36;70.12;101523.13;5015251;28;45977;-78
2021/09/20 07:30:06;;;;;;;;;14.25;13.00;;;;;18.35;70.22;101520.47;5014041;28;45776;-77
2021/09/20 07:32:32;;;;;;;;;16.00;12.75;;;;;18.40;70.11;101522.34;5013804;28;45453;-77
2021/09/20 07:34:58;;;;;;;;;17.50;15.75;;;;;18.40;70.04;101521.50;5014629;28;46365;-77
2021/09/20 07:37:24;;;;;;;;;16.25;12.25;;;;;18.40;69.78;101526.72;5015766;28;45464;-77
2021/09/20 07:39:49;;;;;;;;;12.00;12.00;;;;;18.42;70.32;101532.88;5015656;28;45381;-77
2021/09/20 07:42:15;;;;;;;;;15.25;12.75;;;;;18.44;69.97;101530.31;5016985;28;45438;-78
2021/09/20 07:44:41;;;;;;;;;15.50;11.25;;;;;18.42;69.53;101532.88;5016482;28;45465;-78
2021/09/20 07:47:06;;;;;;;;;15.25;13.00;;;;;18.44;70.01;101538.19;5016159;28;45264;-79
2021/09/20 07:49:33;;;;;;;;;13.75;11.00;;;;;18.47;70.34;101532.97;5015929;28;45260;-77
2021/09/20 07:51:59;;;;;;;;;14.50;13.00;;;;;18.47;69.78;101540.84;5016137;28;45433;-79
2021/09/20 07:54:25;;;;;;;;;17.25;11.50;;;;;18.49;69.97;101536.53;5019738;28;45588;-77
2021/09/20 07:56:50;;;;;;;;;17.50;15.25;;;;;18.53;69.93;101539.25;5020566;28;46294;-79
2021/09/20 07:59:16;;;;;;;;;15.00;13.75;;;;;18.59;69.61;101543.75;5017635;28;45244;-79
2021/09/20 08:01:42;;;;;;;;;19.50;16.25;;;;;18.61;69.84;101535.97;5015815;28;45223;-82
2021/09/20 08:04:08;;;;;;;;;15.50;15.50;;;;;18.71;69.76;101538.81;5016165;28;45508;-81
2021/09/20 08:06:33;;;;;;;;;18.00;14.00;;;;;18.78;69.70;101545.09;5015323;28;45397;-78
2021/09/20 08:08:59;;;;;;;;;15.75;14.00;;;;;18.81;69.37;101545.16;5015314;28;45256;-76
2021/09/20 08:11:25;;;;;;;;;23.25;17.50;;;;;18.90;69.32;101551.47;5015248;28;45283;-77
2021/09/20 08:13:51;;;;;;;;;17.50;14.25;;;;;18.95;68.93;101552.50;5015124;28;45538;-78
2021/09/20 08:16:16;;;;;;;;;13.00;12.00;;;;;18.98;68.85;101542.94;5014974;28;45449;-77
2021/09/20 08:18:42;;;;;;;;;18.00;13.25;;;;;19.03;68.34;101548.28;5014886;28;45296;-76
2021/09/20 08:21:08;;;;;;;;;20.75;16.50;;;;;19.09;68.13;101556.28;5015412;28;45351;-77
2021/09/20 08:23:35;;;;;;;;;15.75;15.25;;;;;19.14;67.81;101554.66;5015419;28;45327;-79
2021/09/20 08:26:01;;;;;;;;;13.75;13.00;;;;;19.24;67.90;101563.59;5013497;28;46803;-83
2021/09/20 08:28:27;;;;;;;;;17.50;12.00;;;;;19.28;67.63;101559.28;5015475;28;45323;-80
2021/09/20 08:30:53;;;;;;;;;13.75;12.00;;;;;19.33;67.27;101560.28;5015240;28;45477;-79
2021/09/20 08:33:18;;;;;;;;;12.75;11.75;;;;;19.43;67.26;101556.13;5018476;28;45717;-78
2021/09/20 08:35:44;;;;;;;;;14.50;13.50;;;;;19.48;66.79;101564.97;5018157;28;45479;-82
2021/09/20 08:38:09;;;;;;;;;13.25;12.75;;;;;19.51;66.94;101556.25;5020304;28;45241;-81
2021/09/20 08:40:35;;;;;;;;;15.00;12.75;;;;;19.53;66.15;101565.06;5021715;28;45971;-78
2021/09/20 08:43:01;;;;;;;;;13.00;11.75;;;;;19.54;66.65;101565.09;5019413;28;45399;-78
2021/09/20 08:45:28;;;;;;;;;10.50;8.00;;;;;19.53;66.34;101571.22;5016814;28;47735;-79
2021/09/20 08:47:56;;;;;;;;;16.50;14.50;;;;;19.52;66.44;101573.78;5017994;28;45320;-80
2021/09/20 08:50:42;;;;;;;;;18.50;12.25;;;;;19.51;66.33;101572.00;5018313;28;45323;-78
2021/09/20 08:53:09;;;;;;;;;12.75;11.25;;;;;19.56;66.33;101578.25;5018737;28;45335;-77
2021/09/20 08:55:36;;;;;;;;;15.25;14.50;;;;;19.54;66.56;101569.47;5017770;28;45468;-79
2021/09/20 08:58:03;;;;;;;;;12.00;10.75;;;;;19.61;66.03;101568.72;5017705;28;45756;-79
2021/09/20 09:00:29;;;;;;;;;14.00;13.50;;;;;19.64;66.37;101566.16;5016759;28;45356;-81
2021/09/20 09:02:54;;;;;;;;;16.75;15.25;;;;;19.79;65.15;101590.09;5017815;28;45612;-77
2021/09/20 09:05:23;;;;;;;;;17.00;13.25;;;;;19.83;65.23;101582.25;5017459;28;46249;-79
2021/09/20 09:07:52;;;;;;;;;12.25;10.75;;;;;19.86;65.37;101588.53;5017489;28;45656;-79
2021/09/20 09:10:18;;;;;;;;;13.00;13.00;;;;;19.82;65.30;101580.50;5016419;28;45291;-78
2021/09/20 09:12:44;;;;;;;;;12.75;11.75;;;;;19.90;64.78;101592.09;5017954;28;45347;-78
2021/09/20 09:15:12;;;;;;;;;15.75;12.25;;;;;19.87;64.43;101589.41;5017930;28;45990;-77
2021/09/20 09:17:49;;;;;;;;;14.00;12.50;;;;;19.84;65.40;101584.94;5018249;28;45289;-79
2021/09/20 09:20:16;;;;;;;;;13.75;12.25;;;;;19.91;65.27;101591.22;5018230;28;45396;-82
2021/09/20 09:23:05;;;;;;;;;17.00;13.00;;;;;19.92;64.95;101585.13;5018884;28;45351;-81
2021/09/20 09:25:50;;;;;;;;;12.50;8.25;;;;;19.98;64.51;101586.97;5027825;28;48018;-82
2021/09/20 09:28:19;;;;;;;;;15.00;13.50;;;;;20.12;64.88;101589.84;5028433;28;45251;-78
2021/09/20 09:30:48;;;;;;;;;14.25;12.25;;;;;20.21;64.49;101600.53;5017466;28;45275;-77
2021/09/20 09:33:17;;;;;;;;;12.75;8.50;;;;;20.20;63.99;101604.00;5017641;28;45494;-79
2021/09/20 09:35:48;;;;;;;;;16.50;12.75;;;;;20.15;63.63;101596.03;5016153;28;45285;-79
2021/09/20 09:38:14;;;;;;;;;11.00;7.75;;;;;20.14;64.34;101604.78;5017408;28;45408;-77
2021/09/20 09:40:48;;;;;;;;;11.25;10.25;;;;;20.12;64.01;101603.00;5017655;28;45371;-80
2021/09/20 09:43:28;;;;;;;;;14.00;13.25;;;;;20.06;64.46;101599.38;5014946;28;45616;-78
2021/09/20 09:45:56;;;;;;;;;14.50;14.00;;;;;20.09;63.87;101604.69;5016890;28;46573;-81
2021/09/20 09:48:29;;;;;;;;;12.25;11.75;;;;;20.05;64.26;101602.88;5017143;28;45364;-78
2021/09/20 09:50:58;;;;;;;;;15.50;12.50;;;;;20.04;63.80;101610.72;5015676;28;45333;-80
2021/09/20 09:53:33;;;;;;;;;12.00;11.50;;;;;20.01;63.40;101602.78;5016189;28;45421;-80
2021/09/20 09:56:18;;;;;;;;;13.00;12.25;;;;;19.99;63.68;101615.00;5016839;28;45434;-80
2021/09/20 09:58:58;;;;;;;;;12.25;12.25;;;;;19.93;63.66;101616.69;5016168;28;45560;-83
2021/09/20 10:01:35;;;;;;;;;13.50;13.00;;;;;19.97;63.67;101615.00;5017424;28;45210;-85
2021/09/20 10:04:10;;;;;;;;;16.00;11.25;;;;;19.95;63.84;101624.56;5018777;28;45360;-82
2021/09/20 10:06:41;;;;;;;;;10.75;10.00;;;;;19.92;63.72;101619.28;5021981;28;46693;-84
2021/09/20 10:09:08;;;;;;;;;10.25;10.25;;;;;19.90;63.57;101623.63;5023324;28;45279;-79
2021/09/20 10:11:35;;;;;;;;;14.25;13.50;;;;;19.89;64.38;101629.72;5022783;28;45365;-79
2021/09/20 10:14:02;;;;;;;;;12.50;11.75;;;;;19.87;64.00;101626.19;5018838;28;45323;-80
2021/09/20 10:16:31;;;;;;;;;15.50;12.75;;;;;19.80;63.75;101622.50;5016603;28;45512;-76
2021/09/20 10:18:59;;;;;;;;;13.25;11.25;;;;;19.74;63.90;101610.13;5017860;28;45241;-82
2021/09/20 10:21:25;;;;;;;;;13.00;11.50;;;;;19.74;63.94;101610.13;5013055;28;45735;-79
2021/09/20 10:23:55;;;;;;;;;15.50;13.00;;;;;19.83;64.43;101619.06;5017131;28;45715;-80
2021/09/20 10:26:23;;;;;;;;;14.75;12.75;;;;;19.83;64.33;101619.06;5015760;28;47077;-81
2021/09/20 10:28:52;;;;;;;;;12.75;12.25;;;;;19.94;64.86;101634.22;5020423;28;45658;-82
2021/09/20 10:31:18;;;;;;;;;13.50;13.00;;;;;19.98;64.75;101622.03;5021011;28;45377;-85
2021/09/20 10:33:44;;;;;;;;;13.75;12.75;;;;;20.01;64.72;101629.97;5018036;28;45665;-87
2021/09/20 10:36:10;;;;;;;;;13.00;9.50;;;;;20.04;64.36;101630.00;5019650;28;45359;-85
2021/09/20 10:38:37;;;;;;;;;16.75;13.25;;;;;19.99;63.80;101621.16;5016847;28;45686;-77
2021/09/20 10:41:18;;;;;;;;;12.25;8.00;;;;;20.05;64.15;101629.16;5017185;28;45218;-86
2021/09/20 10:44:05;;;;;;;;;11.75;10.75;;;;;20.06;64.18;101627.44;5017753;28;45503;-77
2021/09/20 10:46:37;;;;;;;;;14.25;11.75;;;;;20.10;63.51;101631.88;5018178;28;45319;-77
2021/09/20 10:49:04;;;;;;;;;12.50;12.50;;;;;20.13;63.40;101625.81;5017993;28;45686;-79
2021/09/20 10:51:37;;;;;;;;;15.50;11.25;;;;;20.17;63.67;101630.25;5016142;28;45481;-83
2021/09/20 10:54:23;;;;;;;;;13.00;10.00;;;;;20.21;63.61;101632.06;5016888;28;45352;-77
2021/09/20 10:56:55;;;;;;;;;11.50;10.50;;;;;20.23;63.22;101627.75;5022129;28;46021;-81
2021/09/20 10:59:24;;;;;;;;;17.25;14.00;;;;;20.30;63.79;101628.75;5023235;28;45676;-88
2021/09/20 11:02:00;;;;;;;;;7.50;7.50;;;;;20.40;63.67;101628.91;5023538;28;45505;-89
2021/09/20 11:04:29;;;;;;;;;11.75;10.25;;;;;20.38;63.54;101609.56;5022732;28;45234;-89
2021/09/20 11:07:10;;;;;;;;;12.50;11.25;;;;;20.53;63.21;101627.38;5017764;28;46023;-78
2021/09/20 11:09:42;;;;;;;;;12.25;10.50;;;;;20.60;62.33;101624.84;5017375;28;45448;-78
2021/09/20 11:12:11;;;;;;;;;11.00;10.00;;;;;20.49;62.93;101600.97;5017808;28;45537;-83
2021/09/20 11:15:04;;;;;;;;;12.75;10.50;;;;;20.66;63.01;101623.22;5016994;28;45600;-82
2021/09/20 11:17:40;;;;;;;;;15.25;12.25;;;;;20.67;62.58;101631.97;5016351;28;47750;-78
2021/09/20 11:20:22;;;;;;;;;12.00;9.50;;;;;20.61;62.58;101624.88;5017465;28;45178;-81